createdAt,value
2019-02-12T00:01:09.169Z,4.40
2019-02-12T00:03:37.414Z,4.43
2019-02-12T00:06:05.660Z,3.47
2019-02-12T00:08:33.918Z,5.73
2019-02-12T00:11:02.163Z,3.63
2019-02-12T00:13:49.757Z,4.70
2019-02-12T00:16:18.027Z,2.55
2019-02-12T00:18:46.269Z,2.20
2019-02-12T00:21:14.511Z,7.28
2019-02-12T00:23:43.206Z,7.17
2019-02-12T00:26:11.470Z,7.20
2019-02-12T00:28:39.709Z,3.43
2019-02-12T00:31:07.949Z,8.10
2019-02-12T00:33:36.206Z,5.93
2019-02-12T00:36:04.455Z,4.10
2019-02-12T00:38:32.696Z,12.83
2019-02-12T00:41:00.938Z,3.40
2019-02-12T00:43:29.190Z,4.53
2019-02-12T00:45:57.427Z,4.30
2019-02-12T00:48:25.673Z,5.30
2019-02-12T00:50:53.927Z,6.07
2019-02-12T00:53:22.497Z,6.00
2019-02-12T00:55:50.749Z,4.37
2019-02-12T00:58:19.008Z,6.83
2019-02-12T01:00:47.253Z,9.48
2019-02-12T01:03:15.499Z,8.28
2019-02-12T01:05:43.741Z,9.55
2019-02-12T01:08:11.990Z,11.43
2019-02-12T01:10:40.245Z,6.80
2019-02-12T01:13:08.509Z,6.90
2019-02-12T01:15:36.758Z,9.80
2019-02-12T01:18:04.998Z,8.20
2019-02-12T01:20:33.254Z,6.90
2019-02-12T01:23:01.501Z,6.07
2019-02-12T01:25:29.738Z,4.13
2019-02-12T01:27:58.003Z,4.43
2019-02-12T01:30:26.249Z,6.97
2019-02-12T01:32:54.514Z,13.30
2019-02-12T01:35:22.749Z,9.53
2019-02-12T01:37:50.993Z,5.90
2019-02-12T01:40:19.241Z,8.23
2019-02-12T01:42:47.489Z,25.87
2019-02-12T01:45:15.738Z,10.80
2019-02-12T01:47:43.988Z,6.28
2019-02-12T01:50:52.277Z,9.35
2019-02-12T01:53:20.531Z,6.30
2019-02-12T01:55:48.770Z,7.97
2019-02-12T01:58:17.039Z,2.83
2019-02-12T02:00:45.278Z,3.60
2019-02-12T02:03:13.604Z,5.90
2019-02-12T02:05:41.783Z,5.60
2019-02-12T02:08:10.075Z,2.83
2019-02-12T02:10:39.132Z,2.87
2019-02-12T02:13:08.295Z,5.33
2019-02-12T02:15:36.722Z,11.37
2019-02-12T02:18:04.972Z,1.70
2019-02-12T02:20:33.224Z,5.33
2019-02-12T02:23:01.483Z,3.62
2019-02-12T02:25:29.729Z,3.90
2019-02-12T02:27:57.977Z,5.30
2019-02-12T02:30:26.233Z,4.65
2019-02-12T02:32:54.489Z,6.25
2019-02-12T02:35:22.728Z,9.20
2019-02-12T02:37:50.968Z,3.97
2019-02-12T02:40:19.240Z,6.20
2019-02-12T02:42:47.481Z,6.77
2019-02-12T02:45:15.723Z,34.27
2019-02-12T02:47:44.003Z,2.47
2019-02-12T02:50:12.217Z,1.33
2019-02-12T02:52:40.455Z,4.87
2019-02-12T02:55:42.656Z,6.30
2019-02-12T02:58:10.901Z,7.23
2019-02-12T03:00:39.137Z,5.90
2019-02-12T03:03:07.388Z,6.63
2019-02-12T03:05:35.635Z,2.80
2019-02-12T03:08:03.890Z,13.05
2019-02-12T03:10:52.319Z,3.60
2019-02-12T03:13:21.430Z,5.03
2019-02-12T03:15:49.684Z,3.40
2019-02-12T03:18:17.933Z,3.83
2019-02-12T03:20:46.194Z,5.07
2019-02-12T03:23:14.430Z,5.30
2019-02-12T03:25:42.686Z,3.77
2019-02-12T03:28:10.936Z,4.10
2019-02-12T03:30:39.215Z,5.65
2019-02-12T03:33:07.452Z,8.83
2019-02-12T03:35:35.690Z,5.80
2019-02-12T03:38:03.947Z,7.03
2019-02-12T03:40:32.192Z,3.60
2019-02-12T03:43:00.432Z,1.50
2019-02-12T03:45:28.674Z,6.40
2019-02-12T03:47:56.935Z,6.10
2019-02-12T03:50:25.180Z,4.50
2019-02-12T03:52:53.418Z,4.20
2019-02-12T03:55:21.675Z,7.40
2019-02-12T03:58:29.944Z,2.07
2019-02-12T04:00:58.201Z,1.40
2019-02-12T04:06:28.004Z,1.70
2019-02-12T04:08:56.250Z,3.03
2019-02-12T04:11:24.508Z,2.87
2019-02-12T04:13:52.745Z,8.23
2019-02-12T04:16:21.011Z,10.93
2019-02-12T04:18:49.256Z,6.50
2019-02-12T04:21:17.504Z,4.97
2019-02-12T04:23:45.750Z,2.20
2019-02-12T04:26:13.985Z,7.37
2019-02-12T04:28:42.252Z,7.70
2019-02-12T04:31:10.487Z,5.62
2019-02-12T04:33:39.306Z,3.25
2019-02-12T04:36:07.549Z,4.58
2019-02-12T04:38:35.791Z,4.72
2019-02-12T04:41:04.046Z,5.97
2019-02-12T04:43:32.298Z,7.50
2019-02-12T04:46:00.554Z,8.80
2019-02-12T04:48:28.807Z,7.10
2019-02-12T04:50:57.048Z,5.97
2019-02-12T04:53:25.304Z,4.00
2019-02-12T04:55:53.554Z,10.60
2019-02-12T04:58:21.788Z,2.30
2019-02-12T05:00:50.047Z,4.10
2019-02-12T05:03:18.296Z,4.77
2019-02-12T05:05:46.534Z,8.13
2019-02-12T05:08:14.781Z,6.30
2019-02-12T05:11:16.598Z,4.90
2019-02-12T05:13:44.912Z,3.90
2019-02-12T05:16:13.157Z,4.83
2019-02-12T05:18:41.425Z,7.67
2019-02-12T05:21:09.669Z,2.30
2019-02-12T05:23:37.917Z,5.50
2019-02-12T05:26:06.163Z,5.45
2019-02-12T05:28:34.410Z,8.63
2019-02-12T05:31:02.676Z,4.87
2019-02-12T05:33:30.930Z,12.70
2019-02-12T05:35:59.177Z,4.33
2019-02-12T05:38:27.414Z,7.50
2019-02-12T05:40:55.673Z,3.73
2019-02-12T05:43:23.906Z,8.97
2019-02-12T05:45:52.171Z,5.60
2019-02-12T05:48:20.415Z,4.28
2019-02-12T05:50:48.660Z,11.05
2019-02-12T05:53:16.913Z,4.90
2019-02-12T05:55:45.160Z,12.40
2019-02-12T05:58:13.404Z,5.22
2019-02-12T06:00:41.647Z,4.05
2019-02-12T06:03:09.906Z,5.03
2019-02-12T06:05:38.161Z,6.37
2019-02-12T06:08:06.426Z,8.53
2019-02-12T06:10:34.671Z,6.35
2019-02-12T06:13:02.939Z,9.25
2019-02-12T06:15:31.175Z,6.83
2019-02-12T06:17:59.445Z,14.00
2019-02-12T06:20:27.697Z,6.57
2019-02-12T06:23:03.394Z,6.50
2019-02-12T06:25:26.045Z,5.63
2019-02-12T06:27:54.239Z,6.87
2019-02-12T06:30:22.499Z,24.63
2019-02-12T06:32:50.767Z,6.70
2019-02-12T06:35:18.996Z,8.25
2019-02-12T06:37:47.245Z,5.57
2019-02-12T06:40:15.485Z,6.30
2019-02-12T06:42:43.732Z,9.77
2019-02-12T06:45:52.030Z,5.57
2019-02-12T06:48:20.277Z,8.37
2019-02-12T06:50:48.524Z,5.13
2019-02-12T06:53:16.774Z,12.47
2019-02-12T06:55:45.033Z,7.37
2019-02-12T06:58:13.269Z,4.22
2019-02-12T07:00:41.518Z,9.57
2019-02-12T07:03:43.574Z,13.50
2019-02-12T07:06:46.517Z,9.63
2019-02-12T07:09:48.821Z,8.28
2019-02-12T07:12:55.796Z,5.95
2019-02-12T07:16:04.091Z,16.40
2019-02-12T07:19:11.042Z,9.13
2019-02-12T07:22:19.328Z,6.75
2019-02-12T07:25:21.194Z,10.60
2019-02-12T07:28:28.359Z,4.97
2019-02-12T07:31:37.771Z,9.07
2019-02-12T07:34:39.326Z,5.37
2019-02-12T07:37:41.096Z,8.20
2019-02-12T07:40:43.532Z,5.55
2019-02-12T07:43:50.849Z,10.30
2019-02-12T07:46:58.245Z,11.50
2019-02-12T07:49:59.730Z,5.60
2019-02-12T07:53:08.479Z,12.05
2019-02-12T07:55:51.827Z,5.03
2019-02-12T07:59:01.170Z,8.83
2019-02-12T08:02:12.485Z,11.12
2019-02-12T08:05:19.446Z,12.67
2019-02-12T08:08:18.804Z,4.95
2019-02-12T08:11:20.388Z,13.13
2019-02-12T08:14:27.380Z,10.34
2019-02-12T08:17:29.516Z,7.83
2019-02-12T08:20:31.582Z,9.40
2019-02-12T08:23:41.211Z,6.93
2019-02-12T08:26:49.329Z,4.72
2019-02-12T08:29:56.297Z,9.70
2019-02-12T08:33:03.397Z,13.73
2019-02-12T08:36:10.439Z,9.40
2019-02-12T08:39:18.813Z,6.13
2019-02-12T08:42:27.985Z,12.10
2019-02-12T08:45:34.990Z,11.97
2019-02-12T08:48:43.302Z,7.43
2019-02-12T08:51:45.156Z,15.53
2019-02-12T08:54:52.219Z,8.50
2019-02-12T08:57:59.288Z,18.27
2019-02-12T09:01:06.377Z,9.50
2019-02-12T09:04:13.432Z,9.43
2019-02-12T09:07:20.418Z,9.83
2019-02-12T09:10:27.404Z,3.63
2019-02-12T09:13:29.289Z,6.37
2019-02-12T09:19:36.053Z,9.93
2019-02-12T09:22:43.037Z,3.13
2019-02-12T09:25:51.392Z,7.70
2019-02-12T09:28:53.339Z,3.33
2019-02-12T09:31:56.129Z,12.07
2019-02-12T09:34:58.291Z,8.70
2019-02-12T09:38:05.265Z,10.53
2019-02-12T09:41:13.620Z,7.92
2019-02-12T09:44:03.188Z,8.97
2019-02-12T09:47:10.203Z,5.23
2019-02-12T09:50:11.892Z,12.20
2019-02-12T09:53:14.261Z,9.67
2019-02-12T09:56:21.277Z,5.03
2019-02-12T09:59:28.252Z,8.70
2019-02-12T10:02:30.215Z,6.87
2019-02-12T10:05:32.307Z,5.70
2019-02-12T10:08:34.627Z,9.30
2019-02-12T10:11:36.154Z,7.73
2019-02-12T10:14:43.114Z,5.55
2019-02-12T10:17:51.412Z,7.40
2019-02-12T10:20:53.773Z,7.60
2019-02-12T10:23:55.348Z,6.23
2019-02-12T10:26:57.555Z,6.20
2019-02-12T10:30:04.569Z,8.70
2019-02-12T10:32:31.833Z,16.93
2019-02-12T10:35:00.167Z,7.87
2019-02-12T10:40:36.557Z,11.20
2019-02-12T10:43:04.804Z,5.87
2019-02-12T10:45:33.074Z,6.83
2019-02-12T10:48:20.954Z,10.73
2019-02-12T10:50:49.255Z,8.43
2019-02-12T10:53:36.866Z,10.03
2019-02-12T10:56:38.541Z,12.00
2019-02-12T10:59:07.161Z,4.60
2019-02-12T11:01:35.424Z,8.93
2019-02-12T11:04:03.697Z,7.60
2019-02-12T11:09:22.047Z,8.97
2019-02-12T11:11:50.174Z,3.40
2019-02-12T11:14:18.439Z,6.25
2019-02-12T11:16:46.788Z,14.27
2019-02-12T11:19:15.007Z,8.37
2019-02-12T11:21:43.266Z,6.00
2019-02-12T11:24:11.518Z,10.80
2019-02-12T11:26:39.764Z,2.77
2019-02-12T11:29:08.006Z,3.50
2019-02-12T11:31:36.271Z,8.50
2019-02-12T11:34:04.545Z,6.93
2019-02-12T11:36:32.776Z,11.43
2019-02-12T11:39:01.028Z,7.00
2019-02-12T11:41:29.299Z,4.53
2019-02-12T11:43:57.555Z,9.10
2019-02-12T11:46:26.229Z,12.98
2019-02-12T11:48:54.496Z,14.80
2019-02-12T11:51:22.746Z,6.67
2019-02-12T11:53:50.995Z,7.08
2019-02-12T11:56:19.253Z,3.58
2019-02-12T11:58:47.484Z,9.53
2019-02-12T12:03:54.685Z,11.73
2019-02-12T12:06:22.944Z,4.97
2019-02-12T12:08:51.190Z,8.30
2019-02-12T12:11:19.457Z,4.93
2019-02-12T12:13:47.721Z,11.75
2019-02-12T12:16:15.991Z,11.83
2019-02-12T12:19:24.285Z,8.63
2019-02-12T12:21:52.557Z,7.80
2019-02-12T12:24:20.796Z,5.70
2019-02-12T12:26:49.051Z,7.30
2019-02-12T12:29:17.348Z,4.95
2019-02-12T12:31:45.600Z,6.10
2019-02-12T12:34:13.860Z,3.90
2019-02-12T12:36:42.116Z,4.20
2019-02-12T12:39:10.371Z,5.53
2019-02-12T12:41:38.624Z,6.70
2019-02-12T12:44:06.896Z,10.10
2019-02-12T12:46:35.162Z,10.33
2019-02-12T12:49:03.414Z,4.83
2019-02-12T12:51:31.683Z,7.57
2019-02-12T12:53:59.934Z,5.92
2019-02-12T12:56:28.186Z,5.73
2019-02-12T12:58:56.463Z,4.50
2019-02-12T13:01:25.313Z,3.92
2019-02-12T13:03:53.589Z,6.10
2019-02-12T13:06:21.832Z,7.72
2019-02-12T13:08:50.074Z,6.53
2019-02-12T13:11:18.331Z,3.52
2019-02-12T13:13:47.918Z,4.68
2019-02-12T13:16:16.567Z,5.10
2019-02-12T13:18:44.823Z,4.00
2019-02-12T13:21:13.066Z,1.90
2019-02-12T13:23:42.002Z,6.73
2019-02-12T13:26:10.238Z,3.72
2019-02-12T13:28:38.492Z,6.47
2019-02-12T13:31:06.741Z,10.25
2019-02-12T13:33:35.011Z,6.67
2019-02-12T13:36:03.255Z,8.67
2019-02-12T13:38:31.511Z,11.77
2019-02-12T13:40:59.757Z,4.13
2019-02-12T13:43:28.040Z,9.53
2019-02-12T13:45:56.309Z,9.30
2019-02-12T13:48:24.582Z,5.55
2019-02-12T13:50:52.837Z,7.55
2019-02-12T13:53:21.073Z,5.73
2019-02-12T13:55:49.328Z,5.50
2019-02-12T13:58:17.583Z,5.40
2019-02-12T14:00:45.862Z,4.30
2019-02-12T14:03:22.085Z,6.93
2019-02-12T14:05:44.112Z,3.33
2019-02-12T14:08:12.343Z,6.70
2019-02-12T14:10:40.594Z,5.90
2019-02-12T14:13:08.840Z,5.70
2019-02-12T14:15:37.090Z,4.20
2019-02-12T14:18:05.366Z,4.47
2019-02-12T14:20:33.608Z,4.10
2019-02-12T14:23:01.914Z,4.87
2019-02-12T14:25:30.185Z,6.13
2019-02-12T14:27:58.438Z,6.72
2019-02-12T14:30:26.725Z,3.90
2019-02-12T14:32:54.951Z,3.20
2019-02-12T14:35:23.231Z,3.33
2019-02-12T14:37:51.471Z,4.63
2019-02-12T14:40:19.717Z,2.30
2019-02-12T14:42:47.967Z,5.00
2019-02-12T14:45:49.996Z,1.80
2019-02-12T14:48:18.269Z,4.87
2019-02-12T14:50:46.515Z,4.23
2019-02-12T14:53:14.752Z,7.00
2019-02-12T14:55:43.033Z,6.30
2019-02-12T14:58:11.295Z,4.07
2019-02-12T15:00:39.624Z,2.50
2019-02-12T15:03:07.868Z,2.22
2019-02-12T15:05:36.136Z,6.00
2019-02-12T15:08:04.410Z,3.70
2019-02-12T15:10:32.692Z,4.73
2019-02-12T15:13:00.950Z,3.20
2019-02-12T15:15:29.210Z,5.30
2019-02-12T15:17:57.458Z,4.53
2019-02-12T15:20:25.701Z,3.85
2019-02-12T15:22:53.966Z,2.87
2019-02-12T15:25:22.281Z,5.22
2019-02-12T15:27:50.539Z,5.00
2019-02-12T15:30:52.472Z,5.80
2019-02-12T15:33:20.718Z,5.50
2019-02-12T15:35:48.979Z,8.07
2019-02-12T15:38:17.214Z,4.40
2019-02-12T15:40:45.462Z,7.63
2019-02-12T15:43:13.713Z,8.63
2019-02-12T15:45:41.972Z,8.25
2019-02-12T15:48:10.209Z,6.25
2019-02-12T15:50:38.459Z,5.80
2019-02-12T15:53:06.714Z,6.50
2019-02-12T15:55:42.086Z,4.57
2019-02-12T15:58:05.889Z,9.10
2019-02-12T16:03:16.295Z,5.00
2019-02-12T16:05:44.915Z,3.73
2019-02-12T16:08:13.166Z,5.28
2019-02-12T16:10:41.948Z,9.55
2019-02-12T16:13:12.049Z,7.37
2019-02-12T16:15:43.002Z,8.83
2019-02-12T16:18:11.348Z,4.93
2019-02-12T16:20:39.600Z,10.67
2019-02-12T16:23:07.852Z,8.37
2019-02-12T16:25:36.094Z,3.05
2019-02-12T16:28:04.354Z,5.47
2019-02-12T16:30:32.611Z,9.03
2019-02-12T16:33:00.875Z,4.87
2019-02-12T16:35:29.146Z,6.73
2019-02-12T16:37:57.403Z,7.07
2019-02-12T16:40:25.688Z,5.20
2019-02-12T16:42:53.941Z,11.43
2019-02-12T16:46:02.290Z,2.22
2019-02-12T16:48:30.547Z,6.03
2019-02-12T16:50:58.784Z,6.00
2019-02-12T16:53:27.881Z,4.87
2019-02-12T16:55:57.025Z,10.47
2019-02-12T16:58:25.279Z,5.27
2019-02-12T17:00:53.524Z,10.28
2019-02-12T17:03:21.792Z,3.72
2019-02-12T17:05:50.035Z,4.20
2019-02-12T17:08:18.280Z,8.38
2019-02-12T17:10:46.540Z,13.20
2019-02-12T17:13:14.777Z,8.45
2019-02-12T17:15:43.032Z,6.70
2019-02-12T17:18:11.276Z,7.73
2019-02-12T17:20:39.537Z,6.20
2019-02-12T17:23:07.780Z,3.13
2019-02-12T17:25:36.058Z,11.30
2019-02-12T17:28:04.301Z,5.33
2019-02-12T17:30:32.561Z,5.07
2019-02-12T17:33:00.799Z,6.90
2019-02-12T17:35:29.067Z,1.87
2019-02-12T17:37:57.313Z,9.37
2019-02-12T17:40:25.561Z,5.23
2019-02-12T17:42:53.819Z,4.67
2019-02-12T17:45:22.059Z,6.17
2019-02-12T17:47:50.308Z,5.60
2019-02-12T17:50:18.560Z,10.98
2019-02-12T17:55:25.771Z,7.75
2019-02-12T17:57:54.023Z,6.47
2019-02-12T18:00:41.380Z,6.23
2019-02-12T18:03:09.632Z,3.20
2019-02-12T18:05:37.906Z,5.80
2019-02-12T18:08:06.175Z,7.47
2019-02-12T18:10:34.421Z,8.70
2019-02-12T18:13:02.694Z,8.43
2019-02-12T18:15:30.934Z,15.93
2019-02-12T18:18:20.537Z,9.93
2019-02-12T18:20:50.510Z,7.80
2019-02-12T18:23:18.797Z,6.92
2019-02-12T18:25:47.037Z,7.03
2019-02-12T18:28:15.290Z,9.98
2019-02-12T18:30:43.575Z,6.53
2019-02-12T18:36:39.397Z,8.27
2019-02-12T18:39:07.641Z,11.17
2019-02-12T18:41:35.891Z,6.80
2019-02-12T18:44:04.149Z,7.47
2019-02-12T18:46:33.245Z,15.50
2019-02-12T18:49:01.505Z,9.30
2019-02-12T18:51:29.747Z,9.45
2019-02-12T18:53:58.017Z,7.97
2019-02-12T18:56:26.270Z,6.07
2019-02-12T18:58:54.533Z,10.90
2019-02-12T19:01:22.811Z,12.77
2019-02-12T19:03:51.082Z,15.00
2019-02-12T19:06:19.336Z,10.30
2019-02-12T19:08:47.586Z,14.43
2019-02-12T19:11:15.833Z,10.15
2019-02-12T19:13:44.093Z,11.25
2019-02-12T19:16:12.353Z,10.70
2019-02-12T19:18:40.612Z,16.67
2019-02-12T19:21:09.663Z,18.25
2019-02-12T19:23:58.220Z,14.98
2019-02-12T19:26:49.949Z,16.43
2019-02-12T19:29:16.586Z,12.70
2019-02-12T19:32:04.235Z,12.20
2019-02-12T19:34:32.837Z,13.40
2019-02-12T19:37:35.153Z,14.87
2019-02-12T19:40:37.121Z,11.80
2019-02-12T19:43:18.894Z,14.93
2019-02-12T19:45:47.159Z,17.03
2019-02-12T19:48:16.197Z,20.70
2019-02-12T19:51:04.822Z,15.27
2019-02-12T19:56:34.645Z,15.53
2019-02-12T20:02:03.109Z,28.83
2019-02-12T20:07:58.252Z,21.37
2019-02-12T20:13:48.753Z,17.92
2019-02-12T20:16:17.008Z,22.00
2019-02-12T20:19:28.727Z,20.83
2019-02-12T20:24:56.092Z,21.47
2019-02-12T20:27:43.478Z,22.67
2019-02-12T20:33:33.052Z,19.93
2019-02-12T20:36:01.316Z,20.00
2019-02-12T20:38:29.395Z,20.90
2019-02-12T20:43:59.960Z,21.25
2019-02-12T20:46:28.231Z,28.73
2019-02-12T20:48:56.849Z,25.90
2019-02-12T20:51:25.850Z,19.62
2019-02-12T20:53:54.122Z,20.82
2019-02-12T20:56:22.392Z,27.63
2019-02-12T20:59:09.999Z,24.40
2019-02-12T21:01:57.606Z,19.70
2019-02-12T21:04:25.876Z,19.62
2019-02-12T21:12:20.408Z,18.60
2019-02-12T21:14:48.669Z,18.63
2019-02-12T21:17:16.944Z,20.17
2019-02-12T21:19:45.224Z,20.68
2019-02-12T21:22:13.503Z,21.50
2019-02-12T21:24:41.758Z,23.02
2019-02-12T21:27:10.045Z,21.90
2019-02-12T21:29:38.308Z,23.20
2019-02-12T21:32:06.556Z,22.70
2019-02-12T21:34:34.841Z,20.40
2019-02-12T21:37:03.112Z,23.50
2019-02-12T21:39:31.367Z,21.97
2019-02-12T21:41:59.628Z,21.07
2019-02-12T21:44:27.886Z,19.13
2019-02-12T21:46:56.163Z,23.70
2019-02-12T21:49:24.425Z,20.47
2019-02-12T21:51:52.703Z,19.97
2019-02-12T21:54:20.957Z,20.70
2019-02-12T21:56:49.241Z,22.73
2019-02-12T21:59:17.500Z,23.53
2019-02-12T22:01:45.769Z,27.27
2019-02-12T22:04:14.026Z,27.02
2019-02-12T22:06:42.288Z,18.40
2019-02-12T22:09:10.549Z,19.73
2019-02-12T22:11:38.815Z,23.00
2019-02-12T22:14:07.063Z,25.33
2019-02-12T22:16:35.320Z,24.67
2019-02-12T22:19:03.573Z,28.40
2019-02-12T22:21:31.904Z,25.77
2019-02-12T22:24:00.211Z,17.83
2019-02-12T22:26:28.461Z,22.80
2019-02-12T22:28:56.736Z,24.87
2019-02-12T22:31:24.997Z,19.87
2019-02-12T22:33:53.255Z,24.23
2019-02-12T22:36:21.526Z,21.83
2019-02-12T22:38:49.796Z,22.33
2019-02-12T22:41:18.064Z,18.97
2019-02-12T22:43:46.309Z,21.15
2019-02-12T22:46:14.570Z,20.32
2019-02-12T22:48:42.824Z,21.95
2019-02-12T22:51:11.089Z,23.20
2019-02-12T22:53:39.614Z,22.50
2019-02-12T22:56:07.873Z,23.77
2019-02-12T22:58:36.119Z,27.50
2019-02-12T23:01:44.420Z,24.95
2019-02-12T23:04:12.691Z,26.07
2019-02-12T23:06:40.944Z,22.90
2019-02-12T23:09:49.250Z,23.07
2019-02-12T23:12:17.526Z,25.67
2019-02-12T23:14:45.780Z,22.27
2019-02-12T23:17:14.036Z,25.57
2019-02-12T23:19:42.304Z,24.17
2019-02-12T23:22:10.572Z,31.62
2019-02-12T23:24:38.827Z,23.22
2019-02-12T23:27:07.084Z,32.13
2019-02-12T23:29:35.340Z,21.93
2019-02-12T23:32:03.585Z,25.00
2019-02-12T23:34:31.857Z,26.40
2019-02-12T23:37:00.113Z,24.53
2019-02-12T23:39:28.369Z,27.48
2019-02-12T23:41:56.627Z,22.42
2019-02-12T23:44:24.884Z,21.97
2019-02-12T23:46:53.151Z,23.37
2019-02-12T23:49:21.415Z,29.00
2019-02-12T23:51:49.680Z,27.27
2019-02-12T23:54:17.927Z,26.03
2019-02-12T23:56:46.177Z,23.77
2019-02-12T23:59:14.431Z,29.10
